Time;durP1;ratioP1;P1;durP2;ratioP2;P2;SDS_P1;SDS_P2;PMS_P1;PMS_P2;Temp;Humidity;BMP_temperature;BMP_pressure;BME280_temperature;BME280_humidity;BME280_pressure;Samples;Min_cycle;Max_cycle;Signal;HPM_P1;HPM_P2
2023/12/04 00:01:29;;;;;;;8.10;2.80;;;;;;;-2.85;72.90;98269.56;4948209;29;20046;-56
2023/12/04 00:03:55;;;;;;;7.25;2.80;;;;;;;-2.90;72.82;98261.13;4943301;29;20051;-57
2023/12/04 00:06:21;;;;;;;5.93;2.42;;;;;;;-2.86;72.96;98279.72;4948944;28;20523;-56
2023/12/04 00:08:47;;;;;;;6.60;2.95;;;;;;;-2.85;72.69;98289.91;4919195;29;20049;-57
2023/12/04 00:11:13;;;;;;;9.35;2.85;;;;;;;-2.94;72.85;98277.22;4933512;29;20043;-59
2023/12/04 00:13:39;;;;;;;6.45;3.10;;;;;;;-2.89;72.96;98292.47;4929060;29;20071;-57
2023/12/04 00:16:05;;;;;;;6.72;2.60;;;;;;;-2.86;73.21;98300.91;4945982;28;20043;-56
2023/12/04 00:18:32;;;;;;;7.15;3.00;;;;;;;-2.89;72.88;98298.41;4933559;29;20047;-57
2023/12/04 00:20:58;;;;;;;6.00;2.65;;;;;;;-2.93;72.91;98295.88;4947290;29;20166;-55
2023/12/04 00:23:23;;;;;;;5.95;3.20;;;;;;;-2.90;73.34;98306.88;4935988;29;20063;-57
2023/12/04 00:25:49;;;;;;;8.02;3.17;;;;;;;-2.87;72.84;98303.47;4952816;28;20097;-57
2023/12/04 00:28:15;;;;;;;19.30;3.30;;;;;;;-2.87;72.65;98308.53;4935056;29;20090;-57
2023/12/04 00:30:41;;;;;;;10.00;2.72;;;;;;;-2.96;73.01;98296.72;4946461;28;20067;-57
2023/12/04 00:33:07;;;;;;;11.30;2.92;;;;;;;-3.09;73.04;98285.72;4931177;29;20039;-56
2023/12/04 00:35:33;;;;;;;6.07;2.38;;;;;;;-2.88;73.15;98322.13;4948854;28;20098;-59
2023/12/04 00:37:59;;;;;;;5.85;3.33;;;;;;;-2.91;73.24;98320.44;4954708;28;20098;-56
2023/12/04 00:40:25;;;;;;;7.00;2.95;;;;;;;-2.94;73.04;98328.09;4951812;28;20058;-56
2023/12/04 00:42:51;;;;;;;3.60;2.08;;;;;;;-2.98;73.04;98331.47;4949766;29;20047;-55
2023/12/04 00:45:16;;;;;;;5.45;2.85;;;;;;;-3.01;73.00;98322.16;4921614;29;20478;-58
2023/12/04 00:47:42;;;;;;;6.68;2.40;;;;;;;-2.91;72.79;98332.28;4922216;29;20070;-57
2023/12/04 00:50:08;;;;;;;7.88;3.03;;;;;;;-2.94;72.86;98333.16;4952170;28;20138;-58
2023/12/04 00:52:34;;;;;;;5.80;2.72;;;;;;;-2.97;72.94;98337.38;4941906;29;20426;-56
2023/12/04 00:55:00;;;;;;;6.50;2.58;;;;;;;-3.04;72.91;98327.25;4951392;29;20065;-57
2023/12/04 00:57:26;;;;;;;5.43;2.83;;;;;;;-3.02;72.98;98339.94;4951398;28;20039;-54
2023/12/04 00:59:52;;;;;;;8.15;3.00;;;;;;;-3.07;73.11;98339.09;4950602;29;20491;-56
2023/12/04 01:02:18;;;;;;;8.05;3.15;;;;;;;-3.09;73.15;98346.72;4950446;29;20054;-53
2023/12/04 01:04:44;;;;;;;7.25;2.70;;;;;;;-3.60;73.07;98268.03;4950352;28;20035;-58
2023/12/04 01:07:10;;;;;;;6.13;2.55;;;;;;;-3.11;72.96;98345.06;4954492;28;20041;-60
2023/12/04 01:09:36;;;;;;;6.00;2.95;;;;;;;-3.16;73.02;98350.16;4936755;29;20130;-60
2023/12/04 01:12:02;;;;;;;9.38;3.15;;;;;;;-3.21;72.98;98359.47;4938107;29;20047;-59
2023/12/04 01:14:28;;;;;;;7.85;3.28;;;;;;;-3.25;72.88;98355.25;4938040;29;20427;-59
2023/12/04 01:16:55;;;;;;;7.80;3.50;;;;;;;-3.56;72.76;98325.63;4957280;28;20039;-58
2023/12/04 01:19:21;;;;;;;9.38;3.15;;;;;;;-3.33;72.88;98362.00;4953130;29;20434;-59
2023/12/04 01:21:47;;;;;;;9.65;2.75;;;;;;;-3.75;72.98;98296.84;4950549;29;20545;-60
2023/12/04 01:24:14;;;;;;;7.38;2.97;;;;;;;-3.35;73.06;98368.81;4936396;29;20066;-61
2023/12/04 01:26:40;;;;;;;7.40;3.20;;;;;;;-3.53;72.76;98368.78;4950068;28;20139;-61
2023/12/04 01:29:06;;;;;;;7.55;3.17;;;;;;;-3.53;72.75;98376.41;4950036;29;20571;-61
2023/12/04 01:31:32;;;;;;;7.93;2.83;;;;;;;-3.54;72.92;98374.72;4940170;29;20511;-61
2023/12/04 01:33:58;;;;;;;7.28;3.35;;;;;;;-3.93;73.08;98329.84;4951137;29;20054;-60
2023/12/04 01:36:24;;;;;;;9.40;3.47;;;;;;;-3.76;73.25;98370.47;4953410;28;20043;-58
2023/12/04 01:38:50;;;;;;;10.13;3.55;;;;;;;-3.78;73.16;98372.16;4921118;29;20050;-60
2023/12/04 01:41:15;;;;;;;6.82;2.70;;;;;;;-3.76;73.80;98384.00;4951062;28;20074;-60
2023/12/04 01:43:41;;;;;;;7.57;3.00;;;;;;;-3.79;73.71;98383.16;4949699;28;20100;-60
2023/12/04 01:46:07;;;;;;;8.63;3.47;;;;;;;-4.10;73.41;98337.44;4949576;29;20050;-59
2023/12/04 01:48:33;;;;;;;7.70;3.83;;;;;;;-4.15;73.46;98338.25;4920544;29;20075;-56
2023/12/04 01:51:04;;;;;;;7.72;3.25;;;;;;;-3.97;73.63;98374.66;4949850;29;20101;-59
2023/12/04 01:53:32;;;;;;;9.00;3.70;;;;;;;-4.00;73.71;98372.13;4937097;29;20839;-57
2023/12/04 01:55:58;;;;;;;10.93;4.07;;;;;;;-4.08;73.74;98375.50;4937914;29;20110;-58
2023/12/04 01:58:23;;;;;;;8.25;3.30;;;;;;;-4.09;74.10;98389.03;4951682;28;20090;-58
2023/12/04 02:00:49;;;;;;;9.32;3.58;;;;;;;-4.18;74.24;98382.22;4936629;28;20051;-57
2023/12/04 02:03:15;;;;;;;8.52;3.35;;;;;;;-4.15;73.88;98391.53;4939796;29;20043;-58
2023/12/04 02:05:44;;;;;;;9.15;3.97;;;;;;;-4.19;74.13;98397.44;4934653;29;20787;-60
2023/12/04 02:08:10;;;;;;;9.18;3.63;;;;;;;-4.20;74.22;98391.53;4934687;29;20039;-60
2023/12/04 02:10:36;;;;;;;9.40;3.70;;;;;;;-4.14;74.61;98403.38;4936056;29;20047;-61
2023/12/04 02:13:03;;;;;;;9.57;3.50;;;;;;;-4.09;74.40;98397.50;4954513;28;20082;-61
2023/12/04 02:15:29;;;;;;;9.43;3.42;;;;;;;-4.05;74.25;98403.41;4955397;28;20299;-60
2023/12/04 02:17:55;;;;;;;7.38;3.05;;;;;;;-4.16;73.69;98400.84;4934956;29;20054;-61
2023/12/04 02:20:21;;;;;;;6.35;2.80;;;;;;;-4.18;73.79;98402.50;4949943;29;20062;-59
2023/12/04 02:22:47;;;;;;;9.35;3.25;;;;;;;-4.38;74.22;98356.78;4931689;29;20043;-59
2023/12/04 02:25:13;;;;;;;7.78;3.40;;;;;;;-4.15;73.53;98382.25;4951073;28;20541;-59
2023/12/04 02:27:49;;;;;;;8.95;3.85;;;;;;;-4.31;72.89;98380.50;4949390;28;20122;-62
2023/12/04 02:30:18;;;;;;;8.82;4.00;;;;;;;-4.12;72.95;98414.38;4938117;29;20039;-57
2023/12/04 02:32:48;;;;;;;9.27;3.55;;;;;;;-4.28;72.98;98366.13;4937392;28;20055;-60
2023/12/04 02:35:16;;;;;;;9.80;3.67;;;;;;;-4.00;73.13;98412.72;4911872;29;20058;-61
2023/12/04 02:37:42;;;;;;;7.50;2.75;;;;;;;-3.94;72.92;98414.44;4933217;29;20089;-60
2023/12/04 02:40:09;;;;;;;9.63;3.78;;;;;;;-4.00;72.76;98409.34;4933620;29;20121;-60
2023/12/04 02:42:34;;;;;;;12.25;4.70;;;;;;;-3.93;72.95;98414.47;4919718;29;20155;-61
2023/12/04 02:45:00;;;;;;;8.70;4.07;;;;;;;-3.81;72.70;98410.22;4948388;29;20134;-60
2023/12/04 02:47:26;;;;;;;7.43;3.95;;;;;;;-3.84;72.82;98400.94;4936139;29;20050;-57
2023/12/04 02:49:53;;;;;;;11.65;3.92;;;;;;;-3.81;72.55;98420.38;4920377;28;20126;-60
2023/12/04 02:52:19;;;;;;;9.27;4.13;;;;;;;-4.03;72.29;98386.50;4955148;28;20039;-62
2023/12/04 02:54:45;;;;;;;10.15;4.05;;;;;;;-3.78;72.14;98430.56;4947153;29;20070;-58
2023/12/04 02:57:11;;;;;;;6.78;2.83;;;;;;;-3.79;71.56;98434.78;4948172;28;20560;-59
2023/12/04 02:59:36;;;;;;;10.35;4.10;;;;;;;-3.82;71.47;98436.47;4933294;29;20039;-57
2023/12/04 03:02:03;;;;;;;13.52;4.50;;;;;;;-3.78;71.87;98438.16;4951999;28;20474;-57
2023/12/04 03:04:30;;;;;;;10.68;4.00;;;;;;;-3.78;71.90;98444.09;4936629;29;20035;-59
2023/12/04 03:06:56;;;;;;;9.95;3.88;;;;;;;-4.00;72.01;98420.34;4948565;29;20113;-57
2023/12/04 03:09:22;;;;;;;10.45;3.90;;;;;;;-3.94;71.86;98435.59;4950620;28;20039;-59
2023/12/04 03:11:48;;;;;;;12.00;4.30;;;;;;;-3.82;71.58;98462.69;4948335;29;20047;-58
2023/12/04 03:14:14;;;;;;;9.25;3.35;;;;;;;-3.84;71.87;98466.94;4948598;28;20154;-59
2023/12/04 03:16:40;;;;;;;8.82;3.67;;;;;;;-3.87;71.80;98462.66;4936300;29;20078;-60
2023/12/04 03:19:06;;;;;;;10.40;4.25;;;;;;;-3.88;71.54;98472.84;4937546;29;20086;-59
2023/12/04 03:21:32;;;;;;;9.05;3.78;;;;;;;-3.88;71.61;98481.31;4948763;29;20588;-59
2023/12/04 03:23:58;;;;;;;9.50;4.18;;;;;;;-4.19;71.12;98438.91;4933993;29;20047;-59
2023/12/04 03:26:24;;;;;;;9.35;3.75;;;;;;;-4.12;71.26;98463.44;4948349;29;20448;-55
2023/12/04 03:28:49;;;;;;;5.68;2.45;;;;;;;-3.97;71.37;98493.09;4933171;29;20048;-57
2023/12/04 03:31:15;;;;;;;8.45;4.28;;;;;;;-4.32;70.94;98490.41;4949239;29;20050;-57
2023/12/04 03:33:41;;;;;;;6.78;3.35;;;;;;;-4.31;71.24;98513.25;4947445;29;20039;-57
2023/12/04 03:36:08;;;;;;;9.40;3.83;;;;;;;-4.29;71.69;98524.22;4934272;29;20073;-58
2023/12/04 03:38:34;;;;;;;10.48;3.03;;;;;;;-4.23;71.76;98532.72;4939259;28;20049;-60
2023/12/04 03:41:00;;;;;;;7.95;3.75;;;;;;;-4.20;71.47;98540.38;4948604;29;20042;-59
2023/12/04 03:43:25;;;;;;;11.90;3.97;;;;;;;-4.19;71.58;98549.69;4929718;28;20506;-60
2023/12/04 03:45:51;;;;;;;10.82;3.72;;;;;;;-4.14;71.11;98548.88;4947639;29;20046;-57
2023/12/04 03:48:17;;;;;;;11.88;4.40;;;;;;;-4.39;71.37;98511.50;4948912;29;20095;-59
2023/12/04 03:50:43;;;;;;;9.27;3.40;;;;;;;-4.08;71.37;98551.41;4950743;28;20049;-58
2023/12/04 03:53:09;;;;;;;8.65;3.42;;;;;;;-4.18;70.97;98536.97;4946900;29;20045;-60
2023/12/04 03:55:34;;;;;;;5.68;3.17;;;;;;;-4.17;71.00;98573.34;4917560;29;20105;-58
2023/12/04 03:58:00;;;;;;;7.80;3.13;;;;;;;-4.65;71.01;98530.75;4948610;29;20052;-57
2023/12/04 04:00:26;;;;;;;9.35;3.95;;;;;;;-4.26;71.69;98586.84;4939885;29;20047;-58
2023/12/04 04:02:52;;;;;;;8.63;3.90;;;;;;;-4.40;71.53;98598.59;4935332;29;20523;-61
2023/12/04 04:05:18;;;;;;;7.45;3.28;;;;;;;-4.50;71.51;98597.66;4947398;29;20054;-59
2023/12/04 04:07:44;;;;;;;10.23;3.55;;;;;;;-4.47;71.92;98599.38;4949157;28;20502;-56
2023/12/04 04:10:09;;;;;;;12.48;4.28;;;;;;;-4.40;71.55;98601.13;4951842;28;20724;-57
2023/12/04 04:12:35;;;;;;;7.72;3.35;;;;;;;-4.46;71.68;98596.84;4937006;29;20418;-62
2023/12/04 04:15:01;;;;;;;10.70;4.40;;;;;;;-4.33;72.02;98616.38;4951622;28;20047;-62
2023/12/04 04:17:32;;;;;;;4.65;2.92;;;;;;;-4.59;71.30;98614.47;4951294;29;20043;-62
2023/12/04 04:19:58;;;;;;;6.80;3.22;;;;;;;-4.78;71.62;98628.69;4955012;28;20047;-61
2023/12/04 04:22:24;;;;;;;5.40;2.80;;;;;;;-5.23;72.21;98555.59;4949261;29;20039;-62
2023/12/04 04:24:50;;;;;;;8.68;4.18;;;;;;;-4.84;72.59;98633.69;4934608;29;20705;-62
2023/12/04 04:27:16;;;;;;;10.02;4.07;;;;;;;-4.87;72.93;98634.53;4948061;28;20092;-62
2023/12/04 04:29:41;;;;;;;9.93;4.15;;;;;;;-4.76;72.82;98635.47;4927114;29;20154;-63
2023/12/04 04:32:07;;;;;;;8.80;5.05;;;;;;;-4.79;72.67;98648.13;4951142;29;20122;-61
2023/12/04 04:34:34;;;;;;;9.30;3.65;;;;;;;-4.94;72.89;98655.56;4953370;28;20140;-61
2023/12/04 04:36:59;;;;;;;11.32;3.83;;;;;;;-4.85;73.21;98648.06;4938437;29;20098;-60
2023/12/04 04:39:25;;;;;;;9.68;4.32;;;;;;;-4.71;73.40;98656.63;4954278;28;20042;-62
2023/12/04 04:41:51;;;;;;;8.20;4.28;;;;;;;-4.61;72.93;98659.28;4938543;29;20055;-63
2023/12/04 04:44:17;;;;;;;9.07;3.53;;;;;;;-4.67;72.63;98667.66;4924674;28;20039;-62
2023/12/04 04:46:43;;;;;;;8.38;4.10;;;;;;;-4.57;72.71;98655.91;4951666;29;20043;-62
2023/12/04 04:49:09;;;;;;;9.43;3.42;;;;;;;-4.48;72.87;98664.44;4950462;28;20098;-62
2023/12/04 04:51:35;;;;;;;12.30;4.20;;;;;;;-4.45;72.54;98671.25;4918228;29;20043;-61
2023/12/04 04:54:01;;;;;;;11.38;5.07;;;;;;;-4.72;72.68;98632.13;4950984;29;20158;-61
2023/12/04 04:56:27;;;;;;;9.40;4.18;;;;;;;-4.50;72.63;98672.91;4938510;28;20043;-59
2023/12/04 04:58:53;;;;;;;8.60;3.97;;;;;;;-4.59;72.42;98672.78;4953476;28;20125;-63
2023/12/04 05:01:19;;;;;;;9.43;4.30;;;;;;;-4.57;72.63;98677.06;4949872;28;20050;-62
2023/12/04 05:03:45;;;;;;;11.98;4.15;;;;;;;-4.62;72.66;98657.56;4920496;29;20142;-63
2023/12/04 05:06:11;;;;;;;9.40;4.03;;;;;;;-4.49;72.86;98684.72;4938611;29;20086;-62
2023/12/04 05:08:37;;;;;;;11.40;4.20;;;;;;;-4.73;72.68;98642.25;4948490;29;20046;-62
2023/12/04 05:11:03;;;;;;;9.35;4.28;;;;;;;-4.47;72.33;98694.06;4950658;28;20134;-63
2023/12/04 05:13:29;;;;;;;15.23;4.15;;;;;;;-4.45;72.52;98691.53;4936089;29;20070;-61
2023/12/04 05:15:55;;;;;;;14.40;4.72;;;;;;;-4.46;72.57;98692.38;4934647;29;20137;-63
2023/12/04 05:18:21;;;;;;;6.88;3.33;;;;;;;-4.97;72.35;98625.09;4938479;28;20642;-62
2023/12/04 05:20:47;;;;;;;11.90;4.88;;;;;;;-4.53;72.87;98701.59;4951501;28;20518;-62
2023/12/04 05:23:13;;;;;;;9.55;4.22;;;;;;;-4.54;72.94;98704.97;4935217;29;20078;-62
2023/12/04 05:25:38;;;;;;;11.52;4.93;;;;;;;-4.80;72.71;98670.91;4949813;29;20051;-63
2023/12/04 05:28:04;;;;;;;11.32;4.75;;;;;;;-4.53;72.22;98719.34;4950961;28;20134;-61
2023/12/04 05:30:31;;;;;;;10.52;4.85;;;;;;;-4.41;72.78;98722.03;4942774;28;20142;-63
2023/12/04 05:32:57;;;;;;;8.57;3.90;;;;;;;-4.28;73.02;98712.81;4904956;29;20134;-62
2023/12/04 05:35:23;;;;;;;10.90;4.43;;;;;;;-4.33;72.53;98714.47;4914926;29;20066;-62
2023/12/04 05:37:49;;;;;;;13.00;4.75;;;;;;;-4.28;72.95;98717.88;4950110;29;20153;-63
2023/12/04 05:40:15;;;;;;;14.65;5.45;;;;;;;-4.38;72.87;98683.13;4919169;28;20043;-61
2023/12/04 05:42:41;;;;;;;15.05;5.40;;;;;;;-4.10;72.47;98729.91;4937242;29;20057;-63
2023/12/04 05:45:07;;;;;;;10.63;4.78;;;;;;;-4.01;72.72;98723.19;4938295;28;20574;-63
2023/12/04 05:47:34;;;;;;;13.73;5.15;;;;;;;-4.17;72.16;98697.69;4924016;29;20082;-61
2023/12/04 05:50:01;;;;;;;9.75;4.07;;;;;;;-4.35;72.08;98683.19;4952335;29;20042;-62
2023/12/04 05:52:30;;;;;;;;;;;;;;;-4.02;72.49;98731.66;4952315;28;20142;-61
2023/12/04 05:54:55;;;;;;;10.45;3.97;;;;;;;-4.27;72.40;98699.31;4949318;29;20008;-62
2023/12/04 05:57:21;;;;;;;12.40;4.22;;;;;;;-4.20;71.69;98746.75;4947947;29;20810;-62
2023/12/04 05:59:48;;;;;;;10.38;4.13;;;;;;;-4.61;72.04;98702.38;4949132;29;20074;-62
2023/12/04 06:02:15;;;;;;;13.25;4.72;;;;;;;-4.29;72.27;98749.16;4952949;28;20043;-61
2023/12/04 06:04:41;;;;;;;14.38;5.75;;;;;;;-4.20;72.47;98759.44;4936244;29;20832;-62
2023/12/04 06:07:08;;;;;;;11.13;4.65;;;;;;;-4.37;72.19;98728.81;4920857;29;20051;-61
2023/12/04 06:09:36;;;;;;;13.32;4.95;;;;;;;-4.15;72.85;98772.16;4936883;29;20138;-62
2023/12/04 06:12:07;;;;;;;11.65;4.53;;;;;;;-4.14;72.91;98766.25;4956281;28;20047;-63
2023/12/04 06:14:34;;;;;;;10.02;4.28;;;;;;;-4.07;72.30;98771.38;4938597;29;20051;-62
2023/12/04 06:17:01;;;;;;;12.70;5.30;;;;;;;-4.06;72.95;98774.75;4932008;29;20055;-63
2023/12/04 06:19:28;;;;;;;12.02;4.35;;;;;;;-4.20;72.46;98750.97;4935425;29;20047;-61
2023/12/04 06:21:55;;;;;;;11.50;4.68;;;;;;;-3.95;72.63;98780.78;4948789;28;20062;-62
2023/12/04 06:24:21;;;;;;;10.35;3.78;;;;;;;-4.05;72.17;98781.53;4932913;29;20143;-63
2023/12/04 06:26:50;;;;;;;15.52;6.07;;;;;;;-4.16;71.91;98775.50;4934590;29;20035;-63
2023/12/04 06:29:16;;;;;;;12.43;4.33;;;;;;;-4.06;71.76;98782.38;4949736;28;20051;-63
2023/12/04 06:31:42;;;;;;;8.60;3.53;;;;;;;-4.05;72.29;98781.53;4934646;28;20058;-61
2023/12/04 06:34:08;;;;;;;12.00;5.00;;;;;;;-4.12;71.61;98780.63;4935694;29;20051;-62
2023/12/04 06:36:38;;;;;;;12.93;5.00;;;;;;;-4.08;71.18;98799.28;4922958;29;20051;-62
2023/12/04 06:39:09;;;;;;;10.73;4.05;;;;;;;-4.01;71.79;98785.81;4952868;28;20066;-62
2023/12/04 06:41:35;;;;;;;11.57;5.10;;;;;;;-4.08;71.23;98794.22;4919823;29;20054;-62
2023/12/04 06:44:01;;;;;;;11.50;5.00;;;;;;;-3.91;71.06;98805.34;4947383;29;20519;-62
2023/12/04 06:46:32;;;;;;;10.32;4.55;;;;;;;-4.03;71.14;98787.50;4913279;29;20044;-62
2023/12/04 06:48:59;;;;;;;10.77;4.75;;;;;;;-4.08;71.13;98819.59;4919824;28;20451;-61
2023/12/04 06:51:25;;;;;;;7.15;3.10;;;;;;;-3.99;70.76;98823.06;4935450;29;20521;-62
2023/12/04 06:53:51;;;;;;;12.23;5.00;;;;;;;-4.14;70.81;98833.06;4949625;28;20047;-63
2023/12/04 06:56:17;;;;;;;9.68;3.47;;;;;;;-4.30;70.45;98826.13;4936542;29;20050;-62
2023/12/04 06:58:43;;;;;;;13.02;4.22;;;;;;;-4.33;70.64;98834.53;4949589;29;20054;-62
2023/12/04 07:01:09;;;;;;;13.80;5.88;;;;;;;-4.30;71.33;98826.13;4934882;29;20039;-62
2023/12/04 07:03:34;;;;;;;10.50;4.05;;;;;;;-4.57;70.96;98792.84;4948086;29;20043;-63
2023/12/04 07:06:01;;;;;;;11.75;4.63;;;;;;;-4.44;71.15;98846.25;4946831;29;20058;-62
2023/12/04 07:08:27;;;;;;;13.27;5.10;;;;;;;-4.44;71.08;98840.31;4935873;29;20117;-62
2023/12/04 07:10:53;;;;;;;7.15;3.35;;;;;;;-4.24;71.33;98849.03;4946078;29;20090;-61
2023/12/04 07:13:19;;;;;;;10.35;4.60;;;;;;;-4.40;70.71;98854.78;4934109;29;20043;-62
2023/12/04 07:15:45;;;;;;;10.32;4.30;;;;;;;-4.44;71.01;98864.00;4930553;29;20054;-61
2023/12/04 07:18:11;;;;;;;11.75;5.28;;;;;;;-4.44;70.91;98846.25;4947510;28;20047;-63
2023/12/04 07:20:37;;;;;;;14.98;5.18;;;;;;;-4.30;70.92;98865.03;4917213;29;20059;-62
2023/12/04 07:23:03;;;;;;;16.20;4.72;;;;;;;-4.26;70.61;98858.31;4929968;29;20039;-63
2023/12/04 07:25:29;;;;;;;13.98;5.47;;;;;;;-4.31;71.07;98830.34;4930157;29;20056;-61
2023/12/04 07:27:55;;;;;;;11.60;4.55;;;;;;;-4.15;70.23;98869.44;4942754;28;20492;-62
2023/12/04 07:30:21;;;;;;;8.07;3.60;;;;;;;-4.14;70.60;98877.91;4947129;29;20043;-63
2023/12/04 07:32:47;;;;;;;12.13;5.03;;;;;;;-4.55;69.88;98860.50;4930898;29;20122;-64
2023/12/04 07:35:13;;;;;;;7.63;3.17;;;;;;;-4.60;69.86;98882.41;4933717;29;20425;-64
2023/12/04 07:37:38;;;;;;;17.15;6.50;;;;;;;-4.42;70.84;98882.66;4948911;28;20519;-61
2023/12/04 07:40:06;;;;;;;13.65;5.43;;;;;;;-4.48;70.22;98889.31;4931664;29;20050;-61
2023/12/04 07:42:31;;;;;;;12.98;4.65;;;;;;;-4.46;70.65;98892.75;4947202;28;20054;-63
2023/12/04 07:44:57;;;;;;;12.98;5.47;;;;;;;-4.53;70.62;98898.56;4932882;29;20043;-64
2023/12/04 07:47:24;;;;;;;13.55;5.13;;;;;;;-4.35;70.62;98908.94;4947383;28;20071;-63
2023/12/04 07:49:50;;;;;;;19.90;4.75;;;;;;;-4.25;70.17;98909.91;4933693;29;20097;-62
2023/12/04 07:52:17;;;;;;;14.38;5.13;;;;;;;-4.19;70.13;98909.97;4930980;29;20050;-61
2023/12/04 07:54:42;;;;;;;10.80;4.65;;;;;;;-4.31;70.07;98877.69;4932107;29;20526;-62
2023/12/04 07:57:08;;;;;;;12.88;4.65;;;;;;;-4.40;69.81;98877.59;4932762;29;20039;-62
2023/12/04 07:59:34;;;;;;;14.27;5.22;;;;;;;-4.80;69.23;98835.66;4945913;29;20039;-61
2023/12/04 08:02:00;;;;;;;16.45;6.43;;;;;;;-4.37;70.11;98918.22;4949307;28;20094;-62
2023/12/04 08:04:27;;;;;;;6.90;3.47;;;;;;;-4.30;69.75;98928.47;4948506;29;20039;-63
2023/12/04 08:06:53;;;;;;;12.45;4.57;;;;;;;-4.23;69.92;98936.97;4948506;28;20603;-63
2023/12/04 08:09:19;;;;;;;13.40;4.70;;;;;;;-4.02;70.08;98941.47;4912698;29;20135;-64
2023/12/04 08:11:45;;;;;;;13.68;5.28;;;;;;;-3.86;70.05;98939.13;4949389;29;20054;-62
2023/12/04 08:14:11;;;;;;;9.68;3.67;;;;;;;-3.76;69.94;98939.19;4916925;29;20078;-63
2023/12/04 08:16:37;;;;;;;11.18;4.47;;;;;;;-3.93;68.99;98939.91;4931641;28;20267;-62
2023/12/04 08:19:03;;;;;;;11.77;4.75;;;;;;;-4.15;68.81;98932.88;4947652;29;20542;-65
2023/12/04 08:21:29;;;;;;;10.52;4.38;;;;;;;-4.43;68.96;98867.41;4947769;29;20515;-61
2023/12/04 08:23:55;;;;;;;10.13;4.63;;;;;;;-3.97;68.94;98943.22;4931025;29;20043;-68
2023/12/04 08:26:23;;;;;;;9.35;3.45;;;;;;;-3.98;68.88;98941.50;4931339;29;20483;-62
2023/12/04 08:28:49;;;;;;;10.10;4.30;;;;;;;-4.50;68.87;98878.31;4949631;28;20046;-62
2023/12/04 08:31:15;;;;;;;10.23;4.32;;;;;;;-4.30;69.42;98922.53;4948198;29;20463;-64
2023/12/04 08:33:41;;;;;;;12.25;4.53;;;;;;;-4.02;68.55;98949.94;4915404;29;20106;-62
2023/12/04 08:36:07;;;;;;;11.48;4.93;;;;;;;-4.24;68.60;98906.53;4916889;29;20050;-62
2023/12/04 08:38:33;;;;;;;14.43;5.30;;;;;;;-3.82;69.42;98949.31;4947876;28;20130;-62
2023/12/04 08:40:59;;;;;;;13.38;5.05;;;;;;;-3.75;68.40;98946.84;4935471;29;20146;-62
2023/12/04 08:43:25;;;;;;;17.02;5.85;;;;;;;-3.56;68.58;98947.91;4947091;29;20050;-61
2023/12/04 08:45:51;;;;;;;14.48;4.88;;;;;;;-3.33;69.08;98959.13;4948126;29;20062;-62
2023/12/04 08:48:17;;;;;;;14.68;5.43;;;;;;;-3.44;68.43;98931.06;4933699;29;20138;-62
2023/12/04 08:50:43;;;;;;;17.17;5.03;;;;;;;-3.40;68.46;98923.50;4933003;29;20519;-61
2023/12/04 08:53:09;;;;;;;16.30;5.75;;;;;;;-3.33;67.23;98963.34;4947287;28;20043;-62
2023/12/04 08:55:35;;;;;;;12.85;5.05;;;;;;;-3.57;67.50;98962.28;4936159;29;20094;-57
2023/12/04 08:58:01;;;;;;;11.25;4.10;;;;;;;-3.47;67.65;98964.09;4932282;29;20317;-64
2023/12/04 09:00:27;;;;;;;8.95;3.08;;;;;;;-3.16;67.77;98979.59;4936050;29;20161;-59
2023/12/04 09:02:54;;;;;;;11.23;5.18;;;;;;;-3.36;67.13;98936.25;4953418;28;20070;-58
2023/12/04 09:05:20;;;;;;;12.23;4.25;;;;;;;-3.17;67.52;98976.22;4936009;29;20122;-57
2023/12/04 09:07:46;;;;;;;13.02;5.22;;;;;;;-3.08;67.88;98970.34;4951643;28;20043;-59
2023/12/04 09:10:12;;;;;;;11.13;4.63;;;;;;;-2.80;67.66;98974.81;4935205;29;20055;-59
2023/12/04 09:12:38;;;;;;;11.77;4.65;;;;;;;-2.56;67.58;98958.84;4951740;29;20047;-60
2023/12/04 09:15:05;;;;;;;14.15;5.30;;;;;;;-2.20;67.09;98978.59;4951446;28;20545;-60
2023/12/04 09:17:33;;;;;;;14.15;4.57;;;;;;;-2.15;66.46;98989.66;4933947;29;20050;-59
2023/12/04 09:19:59;;;;;;;10.57;3.95;;;;;;;-2.14;65.90;98983.69;4951478;29;20124;-55
2023/12/04 09:22:25;;;;;;;10.45;4.97;;;;;;;-1.95;65.41;98990.59;4934198;29;20047;-60
2023/12/04 09:24:51;;;;;;;14.80;5.45;;;;;;;-1.65;65.03;98982.19;4950097;29;20642;-60
2023/12/04 09:27:17;;;;;;;13.10;5.50;;;;;;;-1.60;64.06;98982.22;4935028;29;20074;-58
2023/12/04 09:29:43;;;;;;;11.77;5.75;;;;;;;-1.58;63.90;98988.19;4951301;28;20078;-58
2023/12/04 09:32:10;;;;;;;11.05;4.93;;;;;;;-1.57;64.34;98959.31;4950340;28;20046;-60
2023/12/04 09:34:37;;;;;;;11.88;4.68;;;;;;;-1.85;62.84;98994.88;4950387;29;20515;-52
2023/12/04 09:37:03;;;;;;;9.88;4.70;;;;;;;-2.01;63.34;99000.75;4934358;29;20117;-55
2023/12/04 09:39:29;;;;;;;11.65;5.80;;;;;;;-2.34;63.31;99008.19;4940650;29;20046;-54
2023/12/04 09:41:56;;;;;;;10.65;4.72;;;;;;;-2.07;63.56;99004.94;4934614;29;20114;-52
2023/12/04 09:44:22;;;;;;;13.63;5.32;;;;;;;-1.97;63.55;99010.09;4950737;28;20058;-53
2023/12/04 09:46:48;;;;;;;13.45;5.32;;;;;;;-2.09;63.12;99014.31;4934125;29;20035;-53
2023/12/04 09:49:14;;;;;;;13.35;5.40;;;;;;;-2.12;63.20;99010.03;4919385;29;20069;-56
2023/12/04 09:51:40;;;;;;;11.13;3.80;;;;;;;-1.99;63.69;99011.78;4932951;29;20499;-53
2023/12/04 09:54:06;;;;;;;10.77;4.93;;;;;;;-2.33;63.09;99008.22;4946637;29;20158;-56
2023/12/04 09:56:36;;;;;;;13.50;4.85;;;;;;;-2.84;63.28;98934.09;4933550;29;20045;-56
2023/12/04 09:59:05;;;;;;;15.48;4.90;;;;;;;-2.43;63.80;99021.72;4933867;29;20463;-55
2023/12/04 10:01:31;;;;;;;7.38;3.75;;;;;;;-2.75;63.56;99026.56;4918526;29;20549;-60
2023/12/04 10:04:03;;;;;;;13.15;3.80;;;;;;;-2.97;63.81;99023.81;4936196;29;20045;-59
2023/12/04 10:06:29;;;;;;;12.88;4.47;;;;;;;-2.89;64.57;99033.25;4929905;29;20126;-60
2023/12/04 10:08:58;;;;;;;14.05;4.65;;;;;;;-2.70;64.64;99034.22;4923011;28;20138;-59
2023/12/04 10:11:26;;;;;;;14.88;5.20;;;;;;;-2.94;64.51;98996.75;4933936;29;20046;-60
2023/12/04 10:13:54;;;;;;;15.07;4.70;;;;;;;-2.53;64.82;99031.81;4949448;29;20035;-61
2023/12/04 10:16:34;;;;;;;12.10;4.43;;;;;;;-2.57;64.71;99044.53;4932769;29;20051;-61
2023/12/04 10:19:22;;;;;;;12.18;4.28;;;;;;;-2.68;64.69;99042.75;4948914;29;20046;-62
2023/12/04 10:21:50;;;;;;;12.07;4.07;;;;;;;-2.72;64.64;99054.56;4948869;29;20054;-63
2023/12/04 10:24:39;;;;;;;12.25;5.15;;;;;;;-2.83;64.70;99052.78;4933018;29;20127;-64
2023/12/04 10:27:26;;;;;;;13.32;5.28;;;;;;;-3.04;64.88;99059.38;4935185;29;20045;-64
2023/12/04 10:29:53;;;;;;;17.13;5.40;;;;;;;-3.17;65.12;99024.50;4937668;29;20146;-64
2023/12/04 10:32:23;;;;;;;16.63;5.88;;;;;;;-3.00;65.09;99065.34;4927987;29;20061;-64
2023/12/04 10:34:49;;;;;;;15.00;6.40;;;;;;;-3.05;65.28;99036.50;4932639;29;20534;-64
2023/12/04 10:37:16;;;;;;;9.50;3.97;;;;;;;-2.83;65.07;99048.56;4949790;28;20099;-56
2023/12/04 10:39:47;;;;;;;15.93;5.50;;;;;;;-2.74;65.25;99048.63;4930670;29;20043;-55
2023/12/04 10:42:26;;;;;;;11.55;5.38;;;;;;;-2.56;65.22;99078.44;4933316;29;20285;-59
2023/12/04 10:44:52;;;;;;;16.42;4.80;;;;;;;-2.83;64.55;99085.84;4948311;29;20067;-64
2023/12/04 10:47:21;;;;;;;9.98;3.95;;;;;;;-3.03;64.11;99088.19;4912030;28;20051;-60
2023/12/04 10:49:49;;;;;;;11.15;5.53;;;;;;;-3.09;64.37;99091.50;4932907;28;20752;-57
2023/12/04 10:52:16;;;;;;;16.10;5.40;;;;;;;-2.94;64.72;99089.97;4932317;29;20054;-64
2023/12/04 10:54:42;;;;;;;12.48;5.82;;;;;;;-3.38;64.89;99019.22;4950363;28;20142;-58
2023/12/04 10:57:09;;;;;;;11.43;4.70;;;;;;;-2.91;65.18;99092.53;4919820;28;20135;-58
2023/12/04 10:59:36;;;;;;;10.02;4.22;;;;;;;-2.92;65.11;99098.47;4943542;29;20098;-58
2023/12/04 11:02:05;;;;;;;12.60;5.10;;;;;;;-2.79;65.11;99107.94;4918926;29;20046;-60
2023/12/04 11:04:32;;;;;;;13.32;5.45;;;;;;;-2.89;64.75;99098.50;4932445;29;20039;-62
2023/12/04 11:06:59;;;;;;;13.75;4.70;;;;;;;-2.79;65.13;99105.38;4948662;29;20046;-60
2023/12/04 11:09:26;;;;;;;12.93;4.93;;;;;;;-2.95;64.74;99101.84;4948202;28;20475;-62
2023/12/04 11:11:57;;;;;;;13.38;4.88;;;;;;;-2.87;65.15;99101.91;4932036;29;20098;-60
2023/12/04 11:14:27;;;;;;;11.85;4.03;;;;;;;-3.00;64.73;99108.56;4943482;29;20114;-61
2023/12/04 11:16:56;;;;;;;;;;;;;;;-3.08;65.22;99115.25;4932517;29;20050;-62
2023/12/04 11:19:40;;;;;;;8.38;3.90;;;;;;;-3.12;65.19;99123.69;4948081;29;19985;-59
2023/12/04 11:22:07;;;;;;;9.77;3.90;;;;;;;-3.08;65.20;99125.41;4931432;29;20042;-61
2023/12/04 11:24:35;;;;;;;13.57;5.00;;;;;;;-3.08;65.40;99125.41;4946837;29;20054;-60
2023/12/04 11:27:01;;;;;;;13.43;4.90;;;;;;;-3.10;65.63;99124.56;4911034;28;20055;-58